Ever Beauty — D5MZ4 — position and weather

sailwx.info

Track history (hours):
 
Tides and Currents Weather Stations Pressure Air Temp Water Temp Dewpoint Dewpoint Depression Visibility Wind Speed Wind Dir Waves Ship Positions

Ever Beauty

Last reported at 2017-Oct-09 14:48 UTC. Time now 2017-Oct-22 17:46 UTC.
Position S 02°03' W 044°06'.
Warning: this ship's position is 13 days out of date.

Length 295 m; draft 18.3 m.

Type: Cargo ship. MMSI: 636017848.

Date/timePositionNaut miles runAvg speedWind from/ knotsBaromVisibWave heightAir tempDewpointWater temp
2017-Oct-09 14:48S 02°03' W 044°06'412.3
2017-Oct-09 14:29S 02°07' W 044°08'612.1
2017-Oct-09 14:00S 02°11' W 044°11'611.5
2017-Oct-09 13:30S 02°16' W 044°15'510.5
2017-Oct-09 13:00S 02°21' W 044°17'5 9.9
2017-Oct-09 12:30S 02°25' W 044°20'5 9.3
2017-Oct-09 12:00S 02°29' W 044°22'3 6.5
2017-Oct-09 11:30S 02°32' W 044°23'2 3.5
2017-Oct-09 10:56S 02°34' W 044°23'0 0.0
2017-Oct-09 10:28S 02°34' W 044°23'0 0.0
2017-Oct-09 09:58S 02°34' W 044°23'0 0.0
2017-Oct-09 07:34S 02°34' W 044°23'0 0.0
2017-Oct-09 07:04S 02°34' W 044°23'0 0.1
2017-Oct-09 06:58S 02°34' W 044°23'0 0.0
2017-Oct-09 00:22S 02°34' W 044°23'  
2017-Oct-06 18:52S 02°25' W 044°14'0 0.1
2017-Oct-06 18:28S 02°25' W 044°14'0 0.0
2017-Oct-06 17:58S 02°25' W 044°14'0 0.1
2017-Oct-06 17:28S 02°25' W 044°14'0 0.3
2017-Oct-06 16:58S 02°25' W 044°14'0 0.6
2017-Oct-06 16:28S 02°24' W 044°14'0 0.1
2017-Oct-06 15:58S 02°24' W 044°14'0 0.1
2017-Oct-06 15:28S 02°24' W 044°14'0 0.0
2017-Oct-06 14:34S 02°24' W 044°14'0 0.0
2017-Oct-06 14:28S 02°24' W 044°14'0 0.0
2017-Oct-06 13:52S 02°24' W 044°14'0 0.1
2017-Oct-06 13:19S 02°24' W 044°14'0 0.0
2017-Oct-06 12:55S 02°24' W 044°14'0 0.1
2017-Oct-06 12:30S 02°24' W 044°14'0 0.3
2017-Oct-06 12:00S 02°24' W 044°14'0 0.3
2017-Oct-06 11:30S 02°25' W 044°14'0 0.0
2017-Oct-06 10:58S 02°25' W 044°14'0 0.0
2017-Oct-06 09:39S 02°25' W 044°14'0 0.2
2017-Oct-06 09:28S 02°25' W 044°14'0 0.0
2017-Oct-06 09:00S 02°25' W 044°14'0 0.1
2017-Oct-06 08:24S 02°25' W 044°14'0 0.1
2017-Oct-06 08:00S 02°25' W 044°14'0 0.1
2017-Oct-06 07:30S 02°25' W 044°14'0 0.1
2017-Oct-06 06:54S 02°25' W 044°14'0 0.0
2017-Oct-06 06:27S 02°25' W 044°14'0 0.0
2017-Oct-06 06:00S 02°25' W 044°14'0 0.1
2017-Oct-06 05:27S 02°25' W 044°14'0 0.1
2017-Oct-06 05:00S 02°25' W 044°14'0 0.3
2017-Oct-06 04:30S 02°25' W 044°14'0 0.5
2017-Oct-06 04:00S 02°24' W 044°14'0 0.2
2017-Oct-06 03:30S 02°24' W 044°14'0 0.0
2017-Oct-06 02:58S 02°24' W 044°14'0 0.0
2017-Oct-06 02:28S 02°24' W 044°14'0 0.0
2017-Oct-06 01:58S 02°24' W 044°14'0 0.0
2017-Oct-06 01:28S 02°24' W 044°14'0 0.0
2017-Oct-06 00:58S 02°24' W 044°14'0 0.1
2017-Oct-06 00:25S 02°24' W 044°14'0 0.3
2017-Oct-05 23:58S 02°25' W 044°14'0 0.4
2017-Oct-05 23:28S 02°25' W 044°14'0 0.2
2017-Oct-05 22:58S 02°25' W 044°14'0 0.0
2017-Oct-05 22:28S 02°25' W 044°14'0 0.0
2017-Oct-05 21:58S 02°25' W 044°14'0 0.0
2017-Oct-05 21:28S 02°25' W 044°14'0 0.0
2017-Oct-05 20:58S 02°25' W 044°14'0 0.0
2017-Oct-05 20:25S 02°25' W 044°14'0 0.1
2017-Oct-05 19:58S 02°25' W 044°14'0 0.0
2017-Oct-05 19:25S 02°25' W 044°14'0 0.0
2017-Oct-05 18:58S 02°25' W 044°14'0 0.4
2017-Oct-05 18:30S 02°25' W 044°14'1 2.3
2017-Oct-05 18:00S 02°24' W 044°15'3 5.3
2017-Oct-05 17:30S 02°22' W 044°17'4 7.3
2017-Oct-05 17:00S 02°19' W 044°16'1912.7
2017-Oct-05 15:30S 02°02' W 044°07'612.2
2017-Oct-05 15:00S 01°58' W 044°03'  
Track history (hours):
 
Tides and Currents Weather Stations Pressure Air Temp Water Temp Dewpoint Dewpoint Depression Visibility Wind Speed Wind Dir Waves Ship Positions

Ever Beauty

Last reported at 2017-Oct-09 14:48 UTC. Time now 2017-Oct-22 17:46 UTC.
Position S 02°03' W 044°06'.
Warning: this ship's position is 13 days out of date.

Length 295 m; draft 18.3 m.

Type: Cargo ship. MMSI: 636017848.

Date/timePositionNaut miles runAvg speedWind from/ knotsBaromVisibWave heightAir tempDewpointWater temp
2017-Oct-09 14:48S 02°03' W 044°06'412.3
2017-Oct-09 14:29S 02°07' W 044°08'612.1
2017-Oct-09 14:00S 02°11' W 044°11'611.5
2017-Oct-09 13:30S 02°16' W 044°15'510.5
2017-Oct-09 13:00S 02°21' W 044°17'5 9.9
2017-Oct-09 12:30S 02°25' W 044°20'5 9.3
2017-Oct-09 12:00S 02°29' W 044°22'3 6.5
2017-Oct-09 11:30S 02°32' W 044°23'2 3.5
2017-Oct-09 10:56S 02°34' W 044°23'0 0.0
2017-Oct-09 10:28S 02°34' W 044°23'0 0.0
2017-Oct-09 09:58S 02°34' W 044°23'0 0.0
2017-Oct-09 07:34S 02°34' W 044°23'0 0.0
2017-Oct-09 07:04S 02°34' W 044°23'0 0.1
2017-Oct-09 06:58S 02°34' W 044°23'0 0.0
2017-Oct-09 00:22S 02°34' W 044°23'  
2017-Oct-06 18:52S 02°25' W 044°14'0 0.1
2017-Oct-06 18:28S 02°25' W 044°14'0 0.0
2017-Oct-06 17:58S 02°25' W 044°14'0 0.1
2017-Oct-06 17:28S 02°25' W 044°14'0 0.3
2017-Oct-06 16:58S 02°25' W 044°14'0 0.6
2017-Oct-06 16:28S 02°24' W 044°14'0 0.1
2017-Oct-06 15:58S 02°24' W 044°14'0 0.1
2017-Oct-06 15:28S 02°24' W 044°14'0 0.0
2017-Oct-06 14:34S 02°24' W 044°14'0 0.0
2017-Oct-06 14:28S 02°24' W 044°14'0 0.0
2017-Oct-06 13:52S 02°24' W 044°14'0 0.1
2017-Oct-06 13:19S 02°24' W 044°14'0 0.0
2017-Oct-06 12:55S 02°24' W 044°14'0 0.1
2017-Oct-06 12:30S 02°24' W 044°14'0 0.3
2017-Oct-06 12:00S 02°24' W 044°14'0 0.3
2017-Oct-06 11:30S 02°25' W 044°14'0 0.0
2017-Oct-06 10:58S 02°25' W 044°14'0 0.0
2017-Oct-06 09:39S 02°25' W 044°14'0 0.2
2017-Oct-06 09:28S 02°25' W 044°14'0 0.0
2017-Oct-06 09:00S 02°25' W 044°14'0 0.1
2017-Oct-06 08:24S 02°25' W 044°14'0 0.1
2017-Oct-06 08:00S 02°25' W 044°14'0 0.1
2017-Oct-06 07:30S 02°25' W 044°14'0 0.1
2017-Oct-06 06:54S 02°25' W 044°14'0 0.0
2017-Oct-06 06:27S 02°25' W 044°14'0 0.0
2017-Oct-06 06:00S 02°25' W 044°14'0 0.1
2017-Oct-06 05:27S 02°25' W 044°14'0 0.1
2017-Oct-06 05:00S 02°25' W 044°14'0 0.3
2017-Oct-06 04:30S 02°25' W 044°14'0 0.5
2017-Oct-06 04:00S 02°24' W 044°14'0 0.2
2017-Oct-06 03:30S 02°24' W 044°14'0 0.0
2017-Oct-06 02:58S 02°24' W 044°14'0 0.0
2017-Oct-06 02:28S 02°24' W 044°14'0 0.0
2017-Oct-06 01:58S 02°24' W 044°14'0 0.0
2017-Oct-06 01:28S 02°24' W 044°14'0 0.0
2017-Oct-06 00:58S 02°24' W 044°14'0 0.1
2017-Oct-06 00:25S 02°24' W 044°14'0 0.3
2017-Oct-05 23:58S 02°25' W 044°14'0 0.4
2017-Oct-05 23:28S 02°25' W 044°14'0 0.2
2017-Oct-05 22:58S 02°25' W 044°14'0 0.0
2017-Oct-05 22:28S 02°25' W 044°14'0 0.0
2017-Oct-05 21:58S 02°25' W 044°14'0 0.0
2017-Oct-05 21:28S 02°25' W 044°14'0 0.0
2017-Oct-05 20:58S 02°25' W 044°14'0 0.0
2017-Oct-05 20:25S 02°25' W 044°14'0 0.1
2017-Oct-05 19:58S 02°25' W 044°14'0 0.0
2017-Oct-05 19:25S 02°25' W 044°14'0 0.0
2017-Oct-05 18:58S 02°25' W 044°14'0 0.4
2017-Oct-05 18:30S 02°25' W 044°14'1 2.3
2017-Oct-05 18:00S 02°24' W 044°15'3 5.3
2017-Oct-05 17:30S 02°22' W 044°17'4 7.3
2017-Oct-05 17:00S 02°19' W 044°16'1912.7
2017-Oct-05 15:30S 02°02' W 044°07'612.2
2017-Oct-05 15:00S 01°58' W 044°03'  

Dump ship's entire track history